sensor_id;sensor_type;location;lat;lon;timestamp;temperature;humidity
56044;DHT22;41912;51.022;3.664;2023-08-07T00:00:05;14.90;99.90
56044;DHT22;41912;51.022;3.664;2023-08-07T00:02:34;14.90;99.90
56044;DHT22;41912;51.022;3.664;2023-08-07T00:05:00;14.90;99.90
56044;DHT22;41912;51.022;3.664;2023-08-07T00:07:26;14.80;99.90
56044;DHT22;41912;51.022;3.664;2023-08-07T00:09:51;14.80;99.90
56044;DHT22;41912;51.022;3.664;2023-08-07T00:12:17;14.80;99.90
56044;DHT22;41912;51.022;3.664;2023-08-07T00:14:42;14.70;99.90
56044;DHT22;41912;51.022;3.664;2023-08-07T00:17:08;14.80;99.90
56044;DHT22;41912;51.022;3.664;2023-08-07T00:19:34;14.70;99.90
56044;DHT22;41912;51.022;3.664;2023-08-07T00:21:59;14.70;99.90
56044;DHT22;41912;51.022;3.664;2023-08-07T00:24:25;14.70;99.90
56044;DHT22;41912;51.022;3.664;2023-08-07T00:26:51;14.70;99.90
56044;DHT22;41912;51.022;3.664;2023-08-07T00:29:16;14.70;99.90
56044;DHT22;41912;51.022;3.664;2023-08-07T00:31:45;14.70;99.90
56044;DHT22;41912;51.022;3.664;2023-08-07T00:34:10;14.70;99.90
56044;DHT22;41912;51.022;3.664;2023-08-07T00:36:36;14.60;99.90
56044;DHT22;41912;51.022;3.664;2023-08-07T00:39:02;14.60;99.90
56044;DHT22;41912;51.022;3.664;2023-08-07T00:41:31;14.60;99.90
56044;DHT22;41912;51.022;3.664;2023-08-07T00:43:56;14.60;99.90
56044;DHT22;41912;51.022;3.664;2023-08-07T00:46:22;14.60;99.90
56044;DHT22;41912;51.022;3.664;2023-08-07T00:48:48;14.50;99.90
56044;DHT22;41912;51.022;3.664;2023-08-07T00:51:13;14.50;99.90
56044;DHT22;41912;51.022;3.664;2023-08-07T00:53:40;14.50;99.90
56044;DHT22;41912;51.022;3.664;2023-08-07T00:56:06;14.50;99.90
56044;DHT22;41912;51.022;3.664;2023-08-07T00:58:32;14.40;99.90
56044;DHT22;41912;51.022;3.664;2023-08-07T01:00:59;14.40;99.90
56044;DHT22;41912;51.022;3.664;2023-08-07T01:03:24;14.40;99.90
56044;DHT22;41912;51.022;3.664;2023-08-07T01:05:50;14.40;99.90
56044;DHT22;41912;51.022;3.664;2023-08-07T01:08:16;14.30;99.90
56044;DHT22;41912;51.022;3.664;2023-08-07T01:13:40;14.30;99.90
56044;DHT22;41912;51.022;3.664;2023-08-07T01:16:15;14.30;99.90
56044;DHT22;41912;51.022;3.664;2023-08-07T01:18:42;14.30;99.90
56044;DHT22;41912;51.022;3.664;2023-08-07T01:21:18;14.30;99.90
56044;DHT22;41912;51.022;3.664;2023-08-07T01:23:45;14.30;99.90
56044;DHT22;41912;51.022;3.664;2023-08-07T01:26:11;14.20;99.90
56044;DHT22;41912;51.022;3.664;2023-08-07T01:28:40;14.20;99.90
56044;DHT22;41912;51.022;3.664;2023-08-07T01:31:14;14.20;99.90
56044;DHT22;41912;51.022;3.664;2023-08-07T01:33:48;14.10;99.90
56044;DHT22;41912;51.022;3.664;2023-08-07T01:36:16;14.10;99.90
56044;DHT22;41912;51.022;3.664;2023-08-07T01:38:43;14.20;99.90
56044;DHT22;41912;51.022;3.664;2023-08-07T01:41:09;14.10;99.90
56044;DHT22;41912;51.022;3.664;2023-08-07T01:43:35;14.10;99.90
56044;DHT22;41912;51.022;3.664;2023-08-07T01:46:01;14.10;99.90
56044;DHT22;41912;51.022;3.664;2023-08-07T01:48:28;14.00;99.90
56044;DHT22;41912;51.022;3.664;2023-08-07T01:50:53;14.00;99.90
56044;DHT22;41912;51.022;3.664;2023-08-07T01:53:20;14.00;99.90
56044;DHT22;41912;51.022;3.664;2023-08-07T01:55:45;14.00;99.90
56044;DHT22;41912;51.022;3.664;2023-08-07T01:58:11;14.00;99.90
56044;DHT22;41912;51.022;3.664;2023-08-07T02:00:37;14.00;99.90
56044;DHT22;41912;51.022;3.664;2023-08-07T02:03:03;13.90;99.90
56044;DHT22;41912;51.022;3.664;2023-08-07T02:05:29;14.00;99.90
56044;DHT22;41912;51.022;3.664;2023-08-07T02:07:54;13.90;99.90
56044;DHT22;41912;51.022;3.664;2023-08-07T02:10:22;13.90;99.90
56044;DHT22;41912;51.022;3.664;2023-08-07T02:12:48;13.90;99.90
56044;DHT22;41912;51.022;3.664;2023-08-07T02:15:14;13.90;99.90
56044;DHT22;41912;51.022;3.664;2023-08-07T02:17:39;13.90;99.90
56044;DHT22;41912;51.022;3.664;2023-08-07T02:20:07;13.90;99.90
56044;DHT22;41912;51.022;3.664;2023-08-07T02:22:33;13.90;99.90
56044;DHT22;41912;51.022;3.664;2023-08-07T02:24:58;13.90;99.90
56044;DHT22;41912;51.022;3.664;2023-08-07T02:27:24;13.90;99.90
56044;DHT22;41912;51.022;3.664;2023-08-07T02:29:49;13.90;99.90
56044;DHT22;41912;51.022;3.664;2023-08-07T02:32:16;13.90;99.90
56044;DHT22;41912;51.022;3.664;2023-08-07T02:34:42;13.90;99.90
56044;DHT22;41912;51.022;3.664;2023-08-07T02:37:08;13.90;99.90
56044;DHT22;41912;51.022;3.664;2023-08-07T02:39:33;13.90;99.90
56044;DHT22;41912;51.022;3.664;2023-08-07T02:41:59;13.90;99.90
56044;DHT22;41912;51.022;3.664;2023-08-07T02:44:24;13.90;99.90
56044;DHT22;41912;51.022;3.664;2023-08-07T02:46:50;13.90;99.90
56044;DHT22;41912;51.022;3.664;2023-08-07T02:49:16;13.90;99.90
56044;DHT22;41912;51.022;3.664;2023-08-07T02:51:41;13.90;99.90
56044;DHT22;41912;51.022;3.664;2023-08-07T02:54:07;13.90;99.90
56044;DHT22;41912;51.022;3.664;2023-08-07T02:56:33;13.90;99.90
56044;DHT22;41912;51.022;3.664;2023-08-07T02:58:59;13.90;99.90
56044;DHT22;41912;51.022;3.664;2023-08-07T03:01:27;13.80;99.90
56044;DHT22;41912;51.022;3.664;2023-08-07T03:03:53;13.80;99.90
56044;DHT22;41912;51.022;3.664;2023-08-07T03:06:18;13.80;99.90
56044;DHT22;41912;51.022;3.664;2023-08-07T03:08:44;13.80;99.90
56044;DHT22;41912;51.022;3.664;2023-08-07T03:11:10;13.80;99.90
56044;DHT22;41912;51.022;3.664;2023-08-07T03:13:35;13.80;99.90
56044;DHT22;41912;51.022;3.664;2023-08-07T03:16:02;13.80;99.90
56044;DHT22;41912;51.022;3.664;2023-08-07T03:18:29;13.80;99.90
56044;DHT22;41912;51.022;3.664;2023-08-07T03:20:55;13.70;99.90
56044;DHT22;41912;51.022;3.664;2023-08-07T03:23:22;13.70;99.90
56044;DHT22;41912;51.022;3.664;2023-08-07T03:25:48;13.70;99.90
56044;DHT22;41912;51.022;3.664;2023-08-07T03:28:14;13.70;99.90
56044;DHT22;41912;51.022;3.664;2023-08-07T03:30:39;13.70;99.90
56044;DHT22;41912;51.022;3.664;2023-08-07T03:33:05;13.70;99.90
56044;DHT22;41912;51.022;3.664;2023-08-07T03:35:32;13.70;99.90
56044;DHT22;41912;51.022;3.664;2023-08-07T03:37:58;13.70;99.90
56044;DHT22;41912;51.022;3.664;2023-08-07T03:40:23;13.70;99.90
56044;DHT22;41912;51.022;3.664;2023-08-07T03:42:49;13.60;99.90
56044;DHT22;41912;51.022;3.664;2023-08-07T03:45:15;13.70;99.90
56044;DHT22;41912;51.022;3.664;2023-08-07T03:47:40;13.70;99.90
56044;DHT22;41912;51.022;3.664;2023-08-07T03:50:06;13.60;99.90
56044;DHT22;41912;51.022;3.664;2023-08-07T03:52:32;13.70;99.90
56044;DHT22;41912;51.022;3.664;2023-08-07T03:54:57;13.60;99.90
56044;DHT22;41912;51.022;3.664;2023-08-07T03:57:23;13.60;99.90
56044;DHT22;41912;51.022;3.664;2023-08-07T03:59:49;13.60;99.90
56044;DHT22;41912;51.022;3.664;2023-08-07T04:02:15;13.60;99.90
56044;DHT22;41912;51.022;3.664;2023-08-07T04:04:40;13.50;99.90
56044;DHT22;41912;51.022;3.664;2023-08-07T04:07:06;13.60;99.90
56044;DHT22;41912;51.022;3.664;2023-08-07T04:09:33;13.60;99.90
56044;DHT22;41912;51.022;3.664;2023-08-07T04:11:59;13.50;99.90
56044;DHT22;41912;51.022;3.664;2023-08-07T04:14:24;13.50;99.90
56044;DHT22;41912;51.022;3.664;2023-08-07T04:16:50;13.60;99.90
56044;DHT22;41912;51.022;3.664;2023-08-07T04:19:16;13.60;99.90
56044;DHT22;41912;51.022;3.664;2023-08-07T04:21:41;13.60;99.90
56044;DHT22;41912;51.022;3.664;2023-08-07T04:24:07;13.50;99.90
56044;DHT22;41912;51.022;3.664;2023-08-07T04:26:37;13.50;99.90
56044;DHT22;41912;51.022;3.664;2023-08-07T04:29:03;13.50;99.90
56044;DHT22;41912;51.022;3.664;2023-08-07T04:31:29;13.50;99.90
56044;DHT22;41912;51.022;3.664;2023-08-07T04:33:59;13.50;99.90
56044;DHT22;41912;51.022;3.664;2023-08-07T04:36:25;13.60;99.90
56044;DHT22;41912;51.022;3.664;2023-08-07T04:38:50;13.50;99.90
56044;DHT22;41912;51.022;3.664;2023-08-07T04:41:16;13.60;99.90
56044;DHT22;41912;51.022;3.664;2023-08-07T04:43:42;13.60;99.90
56044;DHT22;41912;51.022;3.664;2023-08-07T04:46:11;13.60;99.90
56044;DHT22;41912;51.022;3.664;2023-08-07T04:48:40;13.60;99.90
56044;DHT22;41912;51.022;3.664;2023-08-07T04:51:06;13.60;99.90
56044;DHT22;41912;51.022;3.664;2023-08-07T04:53:32;13.60;99.90
56044;DHT22;41912;51.022;3.664;2023-08-07T04:55:59;13.60;99.90
56044;DHT22;41912;51.022;3.664;2023-08-07T04:58:25;13.60;99.90
56044;DHT22;41912;51.022;3.664;2023-08-07T05:00:55;13.60;99.90
56044;DHT22;41912;51.022;3.664;2023-08-07T05:03:21;13.60;99.90
56044;DHT22;41912;51.022;3.664;2023-08-07T05:05:46;13.60;99.90
56044;DHT22;41912;51.022;3.664;2023-08-07T05:08:12;13.60;99.90
56044;DHT22;41912;51.022;3.664;2023-08-07T05:10:38;13.70;99.90
56044;DHT22;41912;51.022;3.664;2023-08-07T05:13:03;13.70;99.90
56044;DHT22;41912;51.022;3.664;2023-08-07T05:15:29;13.70;99.90
56044;DHT22;41912;51.022;3.664;2023-08-07T05:17:56;13.70;99.90
56044;DHT22;41912;51.022;3.664;2023-08-07T05:20:21;13.70;99.90
56044;DHT22;41912;51.022;3.664;2023-08-07T05:22:47;13.80;99.90
56044;DHT22;41912;51.022;3.664;2023-08-07T05:25:13;13.80;99.90
56044;DHT22;41912;51.022;3.664;2023-08-07T05:27:42;13.80;99.90
56044;DHT22;41912;51.022;3.664;2023-08-07T05:30:08;13.90;99.90
56044;DHT22;41912;51.022;3.664;2023-08-07T05:32:33;13.90;99.90
56044;DHT22;41912;51.022;3.664;2023-08-07T05:35:06;14.00;99.90
56044;DHT22;41912;51.022;3.664;2023-08-07T05:37:35;14.00;99.90
56044;DHT22;41912;51.022;3.664;2023-08-07T05:40:02;14.00;99.90
56044;DHT22;41912;51.022;3.664;2023-08-07T05:42:27;14.10;99.90
56044;DHT22;41912;51.022;3.664;2023-08-07T05:44:53;14.10;99.90
56044;DHT22;41912;51.022;3.664;2023-08-07T05:47:19;14.20;99.90
56044;DHT22;41912;51.022;3.664;2023-08-07T05:49:44;14.20;99.90
56044;DHT22;41912;51.022;3.664;2023-08-07T05:52:10;14.30;99.90
56044;DHT22;41912;51.022;3.664;2023-08-07T05:54:36;14.30;99.90
56044;DHT22;41912;51.022;3.664;2023-08-07T05:57:01;14.30;99.90
56044;DHT22;41912;51.022;3.664;2023-08-07T05:59:27;14.40;99.90
56044;DHT22;41912;51.022;3.664;2023-08-07T06:01:53;14.40;99.90
56044;DHT22;41912;51.022;3.664;2023-08-07T06:04:20;14.40;99.90
56044;DHT22;41912;51.022;3.664;2023-08-07T06:06:45;14.50;99.90
56044;DHT22;41912;51.022;3.664;2023-08-07T06:09:11;14.50;99.90
56044;DHT22;41912;51.022;3.664;2023-08-07T06:11:37;14.60;99.90
56044;DHT22;41912;51.022;3.664;2023-08-07T06:14:03;14.60;99.90
56044;DHT22;41912;51.022;3.664;2023-08-07T06:16:29;14.60;99.90
56044;DHT22;41912;51.022;3.664;2023-08-07T06:18:55;14.70;99.90
56044;DHT22;41912;51.022;3.664;2023-08-07T06:21:20;14.80;99.90
56044;DHT22;41912;51.022;3.664;2023-08-07T06:23:46;14.90;99.90
56044;DHT22;41912;51.022;3.664;2023-08-07T06:26:12;14.90;99.90
56044;DHT22;41912;51.022;3.664;2023-08-07T06:28:38;14.90;99.90
56044;DHT22;41912;51.022;3.664;2023-08-07T06:31:10;15.00;99.90
56044;DHT22;41912;51.022;3.664;2023-08-07T06:33:36;15.00;99.90
56044;DHT22;41912;51.022;3.664;2023-08-07T06:36:03;15.10;99.90
56044;DHT22;41912;51.022;3.664;2023-08-07T06:38:29;15.20;99.90
56044;DHT22;41912;51.022;3.664;2023-08-07T06:40:56;15.20;99.90
56044;DHT22;41912;51.022;3.664;2023-08-07T06:43:21;15.30;99.90
56044;DHT22;41912;51.022;3.664;2023-08-07T06:45:52;15.30;99.90
56044;DHT22;41912;51.022;3.664;2023-08-07T06:48:18;15.40;99.90
56044;DHT22;41912;51.022;3.664;2023-08-07T06:50:43;15.40;99.90
56044;DHT22;41912;51.022;3.664;2023-08-07T06:53:09;15.40;99.90
56044;DHT22;41912;51.022;3.664;2023-08-07T06:55:35;15.50;99.90
56044;DHT22;41912;51.022;3.664;2023-08-07T06:58:01;15.50;99.90
56044;DHT22;41912;51.022;3.664;2023-08-07T07:00:26;15.60;99.90
56044;DHT22;41912;51.022;3.664;2023-08-07T07:02:52;15.60;99.90
56044;DHT22;41912;51.022;3.664;2023-08-07T07:05:18;15.70;99.90
56044;DHT22;41912;51.022;3.664;2023-08-07T07:07:44;15.70;99.90
56044;DHT22;41912;51.022;3.664;2023-08-07T07:10:09;15.80;99.90
56044;DHT22;41912;51.022;3.664;2023-08-07T07:12:36;15.80;99.90
56044;DHT22;41912;51.022;3.664;2023-08-07T07:15:02;15.90;99.90
56044;DHT22;41912;51.022;3.664;2023-08-07T07:17:28;16.00;99.90
56044;DHT22;41912;51.022;3.664;2023-08-07T07:19:53;16.10;99.90
56044;DHT22;41912;51.022;3.664;2023-08-07T07:22:19;16.10;99.90
56044;DHT22;41912;51.022;3.664;2023-08-07T07:24:45;16.20;99.90
56044;DHT22;41912;51.022;3.664;2023-08-07T07:27:10;16.30;99.90
56044;DHT22;41912;51.022;3.664;2023-08-07T07:29:36;16.30;99.90
56044;DHT22;41912;51.022;3.664;2023-08-07T07:32:02;16.40;99.90
56044;DHT22;41912;51.022;3.664;2023-08-07T07:34:28;16.50;99.90
56044;DHT22;41912;51.022;3.664;2023-08-07T07:36:53;16.40;99.90
56044;DHT22;41912;51.022;3.664;2023-08-07T07:39:20;16.50;99.90
56044;DHT22;41912;51.022;3.664;2023-08-07T07:41:45;16.60;99.90
56044;DHT22;41912;51.022;3.664;2023-08-07T07:44:11;16.60;99.90
56044;DHT22;41912;51.022;3.664;2023-08-07T07:46:36;16.70;99.90
56044;DHT22;41912;51.022;3.664;2023-08-07T07:49:02;16.70;99.90
56044;DHT22;41912;51.022;3.664;2023-08-07T07:51:30;16.80;99.90
56044;DHT22;41912;51.022;3.664;2023-08-07T07:53:57;16.80;99.90
56044;DHT22;41912;51.022;3.664;2023-08-07T07:56:23;16.90;99.90
56044;DHT22;41912;51.022;3.664;2023-08-07T07:58:48;17.00;99.90
56044;DHT22;41912;51.022;3.664;2023-08-07T08:01:14;17.00;99.90
56044;DHT22;41912;51.022;3.664;2023-08-07T08:03:39;17.10;99.90
56044;DHT22;41912;51.022;3.664;2023-08-07T08:06:05;17.20;99.90
56044;DHT22;41912;51.022;3.664;2023-08-07T08:08:31;17.20;99.90
56044;DHT22;41912;51.022;3.664;2023-08-07T08:10:56;17.20;99.90
56044;DHT22;41912;51.022;3.664;2023-08-07T08:13:22;17.20;99.90
56044;DHT22;41912;51.022;3.664;2023-08-07T08:15:49;17.30;99.90
56044;DHT22;41912;51.022;3.664;2023-08-07T08:18:14;17.30;99.90
56044;DHT22;41912;51.022;3.664;2023-08-07T08:20:40;17.30;99.90
56044;DHT22;41912;51.022;3.664;2023-08-07T08:23:06;17.40;99.90
56044;DHT22;41912;51.022;3.664;2023-08-07T08:25:31;17.40;99.90
56044;DHT22;41912;51.022;3.664;2023-08-07T08:27:58;17.40;99.90
56044;DHT22;41912;51.022;3.664;2023-08-07T08:30:25;17.50;99.90
56044;DHT22;41912;51.022;3.664;2023-08-07T08:32:50;17.50;99.90
56044;DHT22;41912;51.022;3.664;2023-08-07T08:35:16;17.60;99.90
56044;DHT22;41912;51.022;3.664;2023-08-07T08:37:42;17.60;99.90
56044;DHT22;41912;51.022;3.664;2023-08-07T08:40:09;17.70;99.90
56044;DHT22;41912;51.022;3.664;2023-08-07T08:42:39;17.80;99.90
56044;DHT22;41912;51.022;3.664;2023-08-07T08:45:07;17.80;99.90
56044;DHT22;41912;51.022;3.664;2023-08-07T08:47:35;17.90;99.90
56044;DHT22;41912;51.022;3.664;2023-08-07T08:50:08;18.00;99.90
56044;DHT22;41912;51.022;3.664;2023-08-07T08:52:36;18.10;99.90
56044;DHT22;41912;51.022;3.664;2023-08-07T08:55:02;18.10;99.90
56044;DHT22;41912;51.022;3.664;2023-08-07T08:57:29;18.10;99.90
56044;DHT22;41912;51.022;3.664;2023-08-07T08:59:56;18.10;99.90
56044;DHT22;41912;51.022;3.664;2023-08-07T09:02:22;18.10;99.90
56044;DHT22;41912;51.022;3.664;2023-08-07T09:04:48;18.20;99.90
56044;DHT22;41912;51.022;3.664;2023-08-07T09:07:15;18.20;99.90
56044;DHT22;41912;51.022;3.664;2023-08-07T09:09:42;18.40;99.90
56044;DHT22;41912;51.022;3.664;2023-08-07T09:12:19;18.40;99.90
56044;DHT22;41912;51.022;3.664;2023-08-07T09:14:49;18.30;99.90
56044;DHT22;41912;51.022;3.664;2023-08-07T09:17:15;18.60;99.90
56044;DHT22;41912;51.022;3.664;2023-08-07T09:19:42;18.70;99.90
56044;DHT22;41912;51.022;3.664;2023-08-07T09:22:07;18.80;99.90
56044;DHT22;41912;51.022;3.664;2023-08-07T09:24:34;18.90;99.90
56044;DHT22;41912;51.022;3.664;2023-08-07T09:27:00;19.00;99.90
56044;DHT22;41912;51.022;3.664;2023-08-07T09:29:27;18.90;99.90
56044;DHT22;41912;51.022;3.664;2023-08-07T09:31:54;18.90;99.90
56044;DHT22;41912;51.022;3.664;2023-08-07T09:34:20;18.90;99.90
56044;DHT22;41912;51.022;3.664;2023-08-07T09:36:46;18.90;99.90
56044;DHT22;41912;51.022;3.664;2023-08-07T09:39:12;18.80;99.90
56044;DHT22;41912;51.022;3.664;2023-08-07T09:41:37;18.90;99.90
56044;DHT22;41912;51.022;3.664;2023-08-07T09:44:07;18.90;99.90
56044;DHT22;41912;51.022;3.664;2023-08-07T09:46:45;19.00;99.80
56044;DHT22;41912;51.022;3.664;2023-08-07T09:49:11;19.00;99.30
56044;DHT22;41912;51.022;3.664;2023-08-07T09:51:47;19.20;99.90
56044;DHT22;41912;51.022;3.664;2023-08-07T09:54:13;19.40;99.90
56044;DHT22;41912;51.022;3.664;2023-08-07T09:56:43;19.40;99.10
56044;DHT22;41912;51.022;3.664;2023-08-07T09:59:08;19.40;98.70
56044;DHT22;41912;51.022;3.664;2023-08-07T10:01:37;19.40;98.60
56044;DHT22;41912;51.022;3.664;2023-08-07T10:04:07;19.40;98.70
56044;DHT22;41912;51.022;3.664;2023-08-07T10:06:34;19.40;99.40
56044;DHT22;41912;51.022;3.664;2023-08-07T10:09:01;19.40;99.60
56044;DHT22;41912;51.022;3.664;2023-08-07T10:11:26;19.50;99.90
56044;DHT22;41912;51.022;3.664;2023-08-07T10:13:53;19.50;99.80
56044;DHT22;41912;51.022;3.664;2023-08-07T10:16:19;19.50;99.20
56044;DHT22;41912;51.022;3.664;2023-08-07T10:18:45;19.60;98.90
56044;DHT22;41912;51.022;3.664;2023-08-07T10:21:11;19.60;98.30
56044;DHT22;41912;51.022;3.664;2023-08-07T10:23:38;19.70;99.30
56044;DHT22;41912;51.022;3.664;2023-08-07T10:26:06;19.80;98.70
56044;DHT22;41912;51.022;3.664;2023-08-07T10:28:36;19.90;98.80
56044;DHT22;41912;51.022;3.664;2023-08-07T10:31:06;20.00;98.20
56044;DHT22;41912;51.022;3.664;2023-08-07T10:33:33;20.10;99.30
56044;DHT22;41912;51.022;3.664;2023-08-07T10:35:59;20.20;97.30
56044;DHT22;41912;51.022;3.664;2023-08-07T10:38:25;20.40;97.60
56044;DHT22;41912;51.022;3.664;2023-08-07T10:41:12;20.50;97.60
56044;DHT22;41912;51.022;3.664;2023-08-07T10:43:39;20.60;97.10
56044;DHT22;41912;51.022;3.664;2023-08-07T10:46:09;20.60;98.30
56044;DHT22;41912;51.022;3.664;2023-08-07T10:48:47;20.50;97.60
56044;DHT22;41912;51.022;3.664;2023-08-07T10:51:18;20.50;97.60
56044;DHT22;41912;51.022;3.664;2023-08-07T10:53:48;20.50;97.90
56044;DHT22;41912;51.022;3.664;2023-08-07T10:56:36;20.50;98.40
56044;DHT22;41912;51.022;3.664;2023-08-07T10:59:10;20.70;98.90
56044;DHT22;41912;51.022;3.664;2023-08-07T11:01:40;20.80;98.90
56044;DHT22;41912;51.022;3.664;2023-08-07T11:04:13;20.90;97.90
56044;DHT22;41912;51.022;3.664;2023-08-07T11:06:42;21.00;97.30
56044;DHT22;41912;51.022;3.664;2023-08-07T11:09:09;21.10;97.80
56044;DHT22;41912;51.022;3.664;2023-08-07T11:11:36;21.20;97.30
56044;DHT22;41912;51.022;3.664;2023-08-07T11:14:06;21.10;96.10
56044;DHT22;41912;51.022;3.664;2023-08-07T11:16:33;21.00;95.80
56044;DHT22;41912;51.022;3.664;2023-08-07T11:18:59;21.10;96.60
56044;DHT22;41912;51.022;3.664;2023-08-07T11:21:25;21.10;96.40
56044;DHT22;41912;51.022;3.664;2023-08-07T11:23:51;21.10;96.90
56044;DHT22;41912;51.022;3.664;2023-08-07T11:26:17;21.10;97.50
56044;DHT22;41912;51.022;3.664;2023-08-07T11:28:47;21.20;97.90
56044;DHT22;41912;51.022;3.664;2023-08-07T11:31:13;21.30;97.80
56044;DHT22;41912;51.022;3.664;2023-08-07T11:33:40;21.40;95.40
56044;DHT22;41912;51.022;3.664;2023-08-07T11:36:13;21.40;95.50
56044;DHT22;41912;51.022;3.664;2023-08-07T11:38:43;21.50;96.50
56044;DHT22;41912;51.022;3.664;2023-08-07T11:41:13;21.70;96.70
56044;DHT22;41912;51.022;3.664;2023-08-07T11:43:39;21.60;96.00
56044;DHT22;41912;51.022;3.664;2023-08-07T11:46:06;21.60;95.90
56044;DHT22;41912;51.022;3.664;2023-08-07T11:48:35;21.50;95.50
56044;DHT22;41912;51.022;3.664;2023-08-07T11:51:01;21.60;94.80
56044;DHT22;41912;51.022;3.664;2023-08-07T11:53:37;22.00;95.00
56044;DHT22;41912;51.022;3.664;2023-08-07T11:56:13;21.80;94.50
56044;DHT22;41912;51.022;3.664;2023-08-07T11:58:48;21.90;94.70
56044;DHT22;41912;51.022;3.664;2023-08-07T12:01:22;22.00;95.60
56044;DHT22;41912;51.022;3.664;2023-08-07T12:06:32;22.10;93.50
56044;DHT22;41912;51.022;3.664;2023-08-07T12:08:57;22.10;94.00
56044;DHT22;41912;51.022;3.664;2023-08-07T12:11:24;22.20;94.40
56044;DHT22;41912;51.022;3.664;2023-08-07T12:13:51;22.10;94.10
56044;DHT22;41912;51.022;3.664;2023-08-07T12:16:17;22.20;94.40
56044;DHT22;41912;51.022;3.664;2023-08-07T12:18:44;22.10;93.50
56044;DHT22;41912;51.022;3.664;2023-08-07T12:21:13;22.00;93.20
56044;DHT22;41912;51.022;3.664;2023-08-07T12:23:38;21.90;93.70
56044;DHT22;41912;51.022;3.664;2023-08-07T12:26:04;21.90;94.00
56044;DHT22;41912;51.022;3.664;2023-08-07T14:02:07;21.60;94.10
56044;DHT22;41912;51.022;3.664;2023-08-07T14:04:32;21.60;94.60
56044;DHT22;41912;51.022;3.664;2023-08-07T14:06:59;21.50;94.50
56044;DHT22;41912;51.022;3.664;2023-08-07T14:09:25;21.60;95.10
56044;DHT22;41912;51.022;3.664;2023-08-07T14:11:51;21.70;93.20
56044;DHT22;41912;51.022;3.664;2023-08-07T14:14:16;21.80;93.00
56044;DHT22;41912;51.022;3.664;2023-08-07T14:16:42;21.90;93.00
56044;DHT22;41912;51.022;3.664;2023-08-07T14:19:08;22.10;93.60
56044;DHT22;41912;51.022;3.664;2023-08-07T14:21:34;22.30;93.30
56044;DHT22;41912;51.022;3.664;2023-08-07T14:23:59;22.60;92.40
56044;DHT22;41912;51.022;3.664;2023-08-07T14:26:25;22.80;92.30
56044;DHT22;41912;51.022;3.664;2023-08-07T14:28:51;23.00;91.50
56044;DHT22;41912;51.022;3.664;2023-08-07T14:31:17;23.20;91.00
56044;DHT22;41912;51.022;3.664;2023-08-07T14:33:42;23.40;91.10
56044;DHT22;41912;51.022;3.664;2023-08-07T14:36:08;23.60;90.80
56044;DHT22;41912;51.022;3.664;2023-08-07T14:38:34;23.70;90.60
56044;DHT22;41912;51.022;3.664;2023-08-07T14:40:59;23.70;91.00
56044;DHT22;41912;51.022;3.664;2023-08-07T14:43:28;23.50;90.20
56044;DHT22;41912;51.022;3.664;2023-08-07T14:45:54;23.40;90.80
56044;DHT22;41912;51.022;3.664;2023-08-07T14:48:20;23.30;90.40
56044;DHT22;41912;51.022;3.664;2023-08-07T14:50:46;23.40;91.00
56044;DHT22;41912;51.022;3.664;2023-08-07T14:53:11;23.40;90.80
56044;DHT22;41912;51.022;3.664;2023-08-07T14:55:37;23.40;90.80
56044;DHT22;41912;51.022;3.664;2023-08-07T14:58:03;23.40;91.70
56044;DHT22;41912;51.022;3.664;2023-08-07T15:00:29;23.50;91.30
56044;DHT22;41912;51.022;3.664;2023-08-07T15:02:56;23.50;91.40
56044;DHT22;41912;51.022;3.664;2023-08-07T15:05:23;23.60;91.90
56044;DHT22;41912;51.022;3.664;2023-08-07T15:07:49;23.80;92.00
56044;DHT22;41912;51.022;3.664;2023-08-07T15:10:14;23.90;91.10
56044;DHT22;41912;51.022;3.664;2023-08-07T15:12:40;23.80;91.30
56044;DHT22;41912;51.022;3.664;2023-08-07T15:15:06;23.70;89.10
56044;DHT22;41912;51.022;3.664;2023-08-07T15:17:32;23.70;89.10
56044;DHT22;41912;51.022;3.664;2023-08-07T15:19:57;23.70;89.30
56044;DHT22;41912;51.022;3.664;2023-08-07T15:22:23;23.70;90.00
56044;DHT22;41912;51.022;3.664;2023-08-07T15:24:49;23.70;90.50
56044;DHT22;41912;51.022;3.664;2023-08-07T15:27:15;23.80;90.00
56044;DHT22;41912;51.022;3.664;2023-08-07T15:29:44;23.80;89.90
56044;DHT22;41912;51.022;3.664;2023-08-07T15:32:11;23.80;88.60
56044;DHT22;41912;51.022;3.664;2023-08-07T15:34:39;23.90;88.50
56044;DHT22;41912;51.022;3.664;2023-08-07T15:37:05;23.90;90.30
56044;DHT22;41912;51.022;3.664;2023-08-07T15:39:30;23.80;90.70
56044;DHT22;41912;51.022;3.664;2023-08-07T15:41:56;23.70;89.10
56044;DHT22;41912;51.022;3.664;2023-08-07T15:44:22;23.60;90.20
56044;DHT22;41912;51.022;3.664;2023-08-07T15:46:47;23.40;90.30
56044;DHT22;41912;51.022;3.664;2023-08-07T15:49:13;23.40;91.30
56044;DHT22;41912;51.022;3.664;2023-08-07T15:51:39;23.40;91.50
56044;DHT22;41912;51.022;3.664;2023-08-07T15:54:04;23.20;90.50
56044;DHT22;41912;51.022;3.664;2023-08-07T15:56:30;23.30;91.20
56044;DHT22;41912;51.022;3.664;2023-08-07T15:58:55;23.30;91.20
56044;DHT22;41912;51.022;3.664;2023-08-07T16:01:21;23.30;92.10
56044;DHT22;41912;51.022;3.664;2023-08-07T16:03:47;23.30;91.70
56044;DHT22;41912;51.022;3.664;2023-08-07T16:06:12;23.40;91.60
56044;DHT22;41912;51.022;3.664;2023-08-07T16:08:38;23.20;90.70
56044;DHT22;41912;51.022;3.664;2023-08-07T16:11:03;23.10;90.80
56044;DHT22;41912;51.022;3.664;2023-08-07T16:13:30;23.10;91.90
56044;DHT22;41912;51.022;3.664;2023-08-07T16:15:55;23.10;91.40
56044;DHT22;41912;51.022;3.664;2023-08-07T16:18:21;23.00;92.20
56044;DHT22;41912;51.022;3.664;2023-08-07T16:20:47;23.00;92.20
56044;DHT22;41912;51.022;3.664;2023-08-07T16:23:13;23.00;91.40
56044;DHT22;41912;51.022;3.664;2023-08-07T16:25:38;23.00;91.30
56044;DHT22;41912;51.022;3.664;2023-08-07T16:28:04;23.10;90.90
56044;DHT22;41912;51.022;3.664;2023-08-07T16:30:30;23.10;90.60
56044;DHT22;41912;51.022;3.664;2023-08-07T16:32:56;23.10;90.40
56044;DHT22;41912;51.022;3.664;2023-08-07T16:35:22;23.00;90.50
56044;DHT22;41912;51.022;3.664;2023-08-07T16:37:47;23.00;90.70
56044;DHT22;41912;51.022;3.664;2023-08-07T16:40:13;23.00;90.00
56044;DHT22;41912;51.022;3.664;2023-08-07T16:42:39;23.00;88.60
56044;DHT22;41912;51.022;3.664;2023-08-07T16:45:05;23.00;88.80
56044;DHT22;41912;51.022;3.664;2023-08-07T16:47:31;23.00;89.60
56044;DHT22;41912;51.022;3.664;2023-08-07T16:49:56;23.00;89.80
56044;DHT22;41912;51.022;3.664;2023-08-07T16:52:23;23.00;89.60
56044;DHT22;41912;51.022;3.664;2023-08-07T16:54:49;23.00;89.60
56044;DHT22;41912;51.022;3.664;2023-08-07T16:57:19;23.00;88.60
56044;DHT22;41912;51.022;3.664;2023-08-07T16:59:45;23.00;88.80
56044;DHT22;41912;51.022;3.664;2023-08-07T17:02:12;23.00;89.40
56044;DHT22;41912;51.022;3.664;2023-08-07T17:04:38;23.00;90.50